createdAt,value
2023-05-21T00:04:21.080Z,98483.69
2023-05-21T00:09:23.375Z,98575.47
2023-05-21T00:14:25.726Z,98572.28
2023-05-21T00:19:28.026Z,98478.41
2023-05-21T00:24:30.497Z,98525.25
2023-05-21T00:29:32.770Z,98485.34
2023-05-21T00:34:35.082Z,98552.47
2023-05-21T00:39:37.280Z,98529.28
2023-05-21T00:44:40.243Z,98545.94
2023-05-21T00:49:42.754Z,98470.78
2023-05-21T00:54:45.198Z,98503.69
2023-05-21T00:59:51.739Z,98506.69
2023-05-21T01:04:56.343Z,98490.84
2023-05-21T01:09:58.881Z,98491.00
2023-05-21T01:15:04.073Z,98487.09
2023-05-21T01:20:10.284Z,98510.00
2023-05-21T01:25:12.597Z,98470.31
2023-05-21T01:30:18.173Z,98486.00
2023-05-21T01:35:27.842Z,98546.66
2023-05-21T01:41:04.065Z,98468.88
2023-05-21T01:46:11.035Z,98524.88
2023-05-21T01:51:13.677Z,98490.34
2023-05-21T01:56:16.113Z,98435.69
2023-05-21T02:01:18.370Z,98496.09
2023-05-21T02:06:20.892Z,98500.94
2023-05-21T02:11:23.977Z,98442.13
2023-05-21T02:16:26.405Z,98445.03
2023-05-21T02:21:28.775Z,98466.00
2023-05-21T02:26:31.488Z,98454.72
2023-05-21T02:31:33.823Z,98491.91
2023-05-21T02:36:36.275Z,98451.56
2023-05-21T02:41:38.722Z,98427.72
2023-05-21T02:46:41.308Z,98444.41
2023-05-21T02:51:43.793Z,98490.56
2023-05-21T02:56:46.227Z,98502.25
2023-05-21T03:01:48.594Z,98466.63
2023-05-21T03:06:55.218Z,98484.31
2023-05-21T03:11:57.589Z,98419.59
2023-05-21T03:17:00.071Z,98523.94
2023-05-21T03:22:07.304Z,98467.53
2023-05-21T03:27:11.894Z,98456.66
2023-05-21T03:32:14.637Z,98484.03
2023-05-21T03:37:18.307Z,98443.53
2023-05-21T03:42:20.744Z,98504.47
2023-05-21T03:47:27.561Z,98502.06
2023-05-21T03:52:30.284Z,98505.06
2023-05-21T03:57:32.949Z,98536.41
2023-05-21T04:02:35.754Z,98471.22
2023-05-21T04:07:38.543Z,98523.47
2023-05-21T04:12:42.728Z,98504.28
2023-05-21T04:17:45.601Z,98511.78
2023-05-21T04:22:48.869Z,98502.47
2023-05-21T04:27:51.248Z,98565.91
2023-05-21T04:32:54.960Z,98486.53
2023-05-21T04:37:57.452Z,98535.53
2023-05-21T04:43:00.977Z,98542.59
2023-05-21T04:48:03.852Z,98552.53
2023-05-21T04:53:06.257Z,98566.06
2023-05-21T04:58:11.247Z,98570.97
2023-05-21T05:03:14.395Z,98535.34
2023-05-21T05:08:18.833Z,98613.88
2023-05-21T05:13:21.328Z,98621.97
2023-05-21T05:18:24.150Z,98693.66
2023-05-21T05:23:26.751Z,98624.69
2023-05-21T05:28:29.099Z,98643.53
2023-05-21T05:33:31.673Z,98590.22
2023-05-21T05:38:35.838Z,98652.88
2023-05-21T05:43:38.534Z,98622.34
2023-05-21T05:48:40.856Z,98621.59
2023-05-21T05:53:43.246Z,98631.50
2023-05-21T05:58:46.074Z,98661.72
2023-05-21T06:03:50.434Z,98638.16
2023-05-21T06:08:55.684Z,98620.19
2023-05-21T06:14:01.592Z,98644.16
2023-05-21T06:19:03.883Z,98682.53
2023-05-21T06:24:06.882Z,98653.78
2023-05-21T06:29:09.253Z,98548.72
2023-05-21T06:34:12.041Z,98653.13
2023-05-21T06:39:14.834Z,98626.44
2023-05-21T06:44:18.608Z,98676.66
2023-05-21T06:49:52.914Z,98654.81
2023-05-21T06:54:55.442Z,98600.19
2023-05-21T07:00:00.089Z,98723.25
2023-05-21T07:05:03.036Z,98617.47
2023-05-21T07:10:06.024Z,98593.78
2023-05-21T07:15:09.511Z,98632.59
2023-05-21T07:20:13.257Z,98619.22
2023-05-21T07:25:17.736Z,98718.84
2023-05-21T07:30:20.819Z,98697.75
2023-05-21T07:35:23.287Z,98654.69
2023-05-21T07:40:25.904Z,98696.53
2023-05-21T07:45:28.269Z,98707.69
2023-05-21T07:50:31.276Z,98695.72
2023-05-21T07:55:33.735Z,98673.22
2023-05-21T08:00:45.226Z,98653.09
2023-05-21T08:05:49.287Z,98753.94
2023-05-21T08:10:52.171Z,98718.91
2023-05-21T08:15:55.672Z,98618.13
2023-05-21T08:20:58.930Z,98717.81
2023-05-21T08:26:01.664Z,98707.06
2023-05-21T08:31:05.924Z,98677.78
2023-05-21T08:36:10.365Z,98636.00
2023-05-21T08:41:23.413Z,98683.25
2023-05-21T08:46:28.712Z,98717.91
2023-05-21T08:51:31.758Z,98715.09
2023-05-21T08:56:36.145Z,98659.84
2023-05-21T09:01:42.439Z,98718.66
2023-05-21T09:06:58.116Z,98731.47
2023-05-21T09:12:25.417Z,98665.69
2023-05-21T09:17:28.523Z,98774.94
2023-05-21T09:22:48.978Z,98667.63
2023-05-21T09:27:52.388Z,98767.50
2023-05-21T09:32:58.046Z,98673.31
2023-05-21T09:38:00.322Z,98784.50
2023-05-21T09:43:02.750Z,98647.56
2023-05-21T09:48:05.520Z,98727.66
2023-05-21T09:53:16.236Z,98727.81
2023-05-21T09:58:18.628Z,98757.28
2023-05-21T10:03:24.127Z,98657.41
2023-05-21T10:08:31.436Z,98754.69
2023-05-21T10:13:40.061Z,98721.28
2023-05-21T10:18:43.252Z,98725.25
2023-05-21T10:23:47.062Z,98743.50
2023-05-21T10:28:52.797Z,98766.53
2023-05-21T10:33:56.062Z,98667.53
2023-05-21T10:39:00.759Z,98633.56
2023-05-21T10:44:18.161Z,98748.31
2023-05-21T10:49:50.575Z,98671.53
2023-05-21T10:55:11.705Z,98784.25
2023-05-21T11:00:16.675Z,98714.19
2023-05-21T11:05:56.249Z,98682.97
2023-05-21T11:10:59.554Z,98670.94
2023-05-21T11:16:02.163Z,98716.00
2023-05-21T11:21:11.415Z,98686.25
2023-05-21T11:26:16.802Z,98656.50
2023-05-21T11:31:27.817Z,98719.13
2023-05-21T11:36:31.955Z,98636.22
2023-05-21T11:42:04.366Z,98630.84
2023-05-21T11:47:09.201Z,98701.22
2023-05-21T11:52:13.360Z,98618.72
2023-05-21T11:57:17.416Z,98705.53
2023-05-21T12:02:22.247Z,98733.81
2023-05-21T12:07:24.452Z,98700.41
2023-05-21T12:12:35.499Z,98676.66
2023-05-21T12:17:44.409Z,98715.91
2023-05-21T12:22:48.339Z,98603.97
2023-05-21T12:27:57.892Z,98617.41
2023-05-21T12:33:00.606Z,98700.34
2023-05-21T12:38:03.782Z,98646.34
2023-05-21T12:43:06.287Z,98642.34
2023-05-21T12:48:08.828Z,98686.34
2023-05-21T12:53:12.939Z,98691.06
2023-05-21T12:58:15.329Z,98633.38
2023-05-21T13:03:17.758Z,98639.47
2023-05-21T13:08:19.937Z,98713.38
2023-05-21T13:13:22.123Z,98613.41
2023-05-21T13:18:24.402Z,98688.03
2023-05-21T13:23:26.760Z,98590.47
2023-05-21T13:28:29.334Z,98668.91
2023-05-21T13:33:32.217Z,98618.44
2023-05-21T13:38:34.521Z,98623.78
2023-05-21T13:43:36.695Z,98583.38
2023-05-21T13:48:38.821Z,98615.19
2023-05-21T13:53:41.389Z,98625.56
2023-05-21T13:58:43.581Z,98552.44
2023-05-21T14:03:45.994Z,98523.59
2023-05-21T14:08:48.153Z,98638.16
2023-05-21T14:13:50.340Z,98499.69
2023-05-21T14:18:52.849Z,98594.75
2023-05-21T14:23:55.227Z,98548.03
2023-05-21T14:28:57.591Z,98581.91
2023-05-21T14:33:59.812Z,98524.00
2023-05-21T14:39:01.967Z,98554.47
2023-05-21T14:44:04.554Z,98478.44
2023-05-21T14:49:06.836Z,98582.19
2023-05-21T14:54:09.146Z,98581.75
2023-05-21T14:59:12.983Z,98585.31
2023-05-21T15:04:15.461Z,98519.84
2023-05-21T15:09:17.699Z,98626.06
2023-05-21T15:14:21.015Z,98542.16
2023-05-21T15:19:23.360Z,98562.56
2023-05-21T15:24:25.688Z,98553.03
2023-05-21T15:29:28.020Z,98514.81
2023-05-21T15:34:30.440Z,98585.41
2023-05-21T15:39:33.549Z,98512.06
2023-05-21T15:44:36.016Z,98672.06
2023-05-21T15:49:38.364Z,98688.47
2023-05-21T15:54:40.696Z,98623.84
2023-05-21T15:59:42.904Z,98622.44
2023-05-21T16:04:45.533Z,98612.28
2023-05-21T16:09:47.887Z,98582.13
2023-05-21T16:14:50.197Z,98648.72
2023-05-21T16:19:52.778Z,98561.84
2023-05-21T16:24:56.389Z,98656.66
2023-05-21T16:29:58.636Z,98572.91
2023-05-21T16:35:01.252Z,98558.78
2023-05-21T16:40:04.735Z,98580.56
2023-05-21T16:45:07.783Z,98577.88
2023-05-21T16:50:10.466Z,98580.69
2023-05-21T16:55:12.772Z,98621.78
2023-05-21T17:00:15.763Z,98586.09
2023-05-21T17:05:18.133Z,98608.16
2023-05-21T17:10:20.532Z,98555.13
2023-05-21T17:15:22.922Z,98621.56
2023-05-21T17:20:25.711Z,98552.19
2023-05-21T17:25:28.023Z,98482.81
2023-05-21T17:30:30.212Z,98551.47
2023-05-21T17:35:32.538Z,98522.94
2023-05-21T17:40:34.766Z,98565.03
2023-05-21T17:45:37.053Z,98586.53
2023-05-21T17:50:39.616Z,98616.44
2023-05-21T17:55:41.737Z,98507.94
2023-05-21T18:00:43.929Z,98604.75
2023-05-21T18:05:46.154Z,98534.44
2023-05-21T18:10:48.407Z,98540.06
2023-05-21T18:15:50.748Z,98503.94
2023-05-21T18:20:53.874Z,98568.84
2023-05-21T18:25:56.406Z,98607.06
2023-05-21T18:31:01.024Z,98514.94
2023-05-21T18:36:03.368Z,98535.72
2023-05-21T18:41:07.657Z,98511.25
2023-05-21T18:46:10.000Z,98560.75
2023-05-21T18:51:12.215Z,98556.19
2023-05-21T18:56:15.100Z,98563.56
2023-05-21T19:01:18.337Z,98559.94
2023-05-21T19:06:25.163Z,98537.97
2023-05-21T19:11:30.991Z,98570.63
2023-05-21T19:16:33.430Z,98559.59
2023-05-21T19:21:36.686Z,98576.63
2023-05-21T19:26:39.142Z,98558.72
2023-05-21T19:31:45.015Z,98572.81
2023-05-21T19:36:53.362Z,98570.63
2023-05-21T19:41:56.444Z,98560.06
2023-05-21T19:47:05.893Z,98561.03
2023-05-21T19:52:08.373Z,98591.06
2023-05-21T19:57:12.477Z,98622.66
2023-05-21T20:02:17.120Z,98545.84
2023-05-21T20:07:19.670Z,98626.22
2023-05-21T20:12:21.868Z,98645.31
2023-05-21T20:17:24.497Z,98575.53
2023-05-21T20:22:27.498Z,98611.69
2023-05-21T20:27:29.959Z,98570.09
2023-05-21T20:32:32.171Z,98573.63
2023-05-21T20:37:34.322Z,98542.84
2023-05-21T20:42:36.809Z,98576.38
2023-05-21T20:47:39.793Z,98574.06
2023-05-21T20:52:45.529Z,98579.72
2023-05-21T20:57:49.147Z,98548.41
2023-05-21T21:02:51.603Z,98591.66
2023-05-21T21:07:55.756Z,98598.38
2023-05-21T21:12:58.271Z,98615.63
2023-05-21T21:18:00.554Z,98610.72
2023-05-21T21:23:02.763Z,98639.72
2023-05-21T21:28:05.226Z,98562.41
2023-05-21T21:33:08.840Z,98584.44
2023-05-21T21:38:11.339Z,98668.31
2023-05-21T21:43:13.512Z,98662.09
2023-05-21T21:48:16.555Z,98634.38
2023-05-21T21:53:19.628Z,98644.63
2023-05-21T21:58:22.155Z,98684.84
2023-05-21T22:03:24.364Z,98643.69
2023-05-21T22:08:28.773Z,98632.00
2023-05-21T22:13:30.955Z,98654.00
2023-05-21T22:18:41.536Z,98683.75
2023-05-21T22:23:44.374Z,98690.44
2023-05-21T22:28:46.645Z,98675.81
2023-05-21T22:33:48.932Z,98689.13
2023-05-21T22:38:51.096Z,98656.25
2023-05-21T22:43:53.254Z,98730.97
2023-05-21T22:48:55.501Z,98646.13
2023-05-21T22:53:57.765Z,98675.91
2023-05-21T22:59:00.033Z,98695.31
2023-05-21T23:04:02.355Z,98680.34
2023-05-21T23:09:05.027Z,98713.13
2023-05-21T23:14:07.650Z,98695.47
2023-05-21T23:19:12.196Z,98727.09
2023-05-21T23:24:14.649Z,98682.63
2023-05-21T23:29:17.002Z,98711.47
2023-05-21T23:34:19.263Z,98640.22
2023-05-21T23:39:21.555Z,98702.00
2023-05-21T23:44:23.862Z,98694.28
2023-05-21T23:49:26.140Z,98688.13
2023-05-21T23:54:28.419Z,98719.75
2023-05-21T23:59:30.850Z,98703.03
